Gold Beach, OR (97444)

8:41 PM PST on February 10, 2016 (GMT -0800)
KF7MWX | | Change Station
CLOSE
Current Station
Personal Weather Station
Location: Gold Beach, OR
Elevation: 56 ft
Nearby Weather Stations

Elev 56 ft 42.41 °N, 124.42 °W | Updated 23 seconds ago

Partly Cloudy
Partly Cloudy
54.1 °F
Feels Like 54.1 °F
N
4.5
Wind Variable Wind from SE
Gusts 5.4 mph

Today
High -- | Low -- °F
--% Chance of Precip.
Yesterday
High -- | Low -- °F
Precip. -- in
Pressure 30.26 in
Visibility 10.0 miles
Clouds Clear
Dew Point 54 °F
Humidity 99%
Rainfall in
Snow Depth Not available.
7:21 AM 5:42 PM
Waxing Crescent, 9% visible
METAR KBOK 110356Z AUTO 00000KT 10SM CLR 12/11 A3021 RMK AO2 SLP245 T01170106
Pressure 30.26 in
Visibility 10.0 miles
Clouds Clear
Dew Point 54 °F
Humidity 99%
Rainfall in
Snow Depth Not available.
7:21 AM 5:42 PM
Waxing Crescent, 9% visible
METAR KBOK 110356Z AUTO 00000KT 10SM CLR 12/11 A3021 RMK AO2 SLP245 T01170106

10-Day Weather Forecast

Almanac

Astronomy

Feb. 10, 2016 Rise Set
Actual Time
Civil Twilight
Nautical Twilight
Astronomical Twilight
Moon
Length of Visible Light
Length of Day
Tomorrow will be .
, % of the Moon is Illuminated

Today's Extremes

State Highs State Lows

Community

WunderPhotos

Upload Photos

1,892,015 photos uploaded!

WunderBlog® & News

Nearby

Air Quality

  Air Quality AQ Index Pollutant
Not available.

Snow Depth

Station Depth Elevation

Earthquake Activity

City Distance Mag. Time & Date
Minimum magnitude displayed is 2.5.

Coastal Water Temperatures

Place Temperature

Stations

Nearby Weather Stations

Station Location Temp. Windchill Dew Point Humidity Wind Precip. Elev Updated Type
                   

Watches & Warnings

There are currently no watches in effect.